<?xml version="1.0" encoding="UTF-8" standalone="no" ?>
<gpx xmlns="http://www.topografix.com/GPX/1/1" xmlns:xsi="http://www.w3.org/2001/XMLSchema-instance" xsi:schemaLocation="http://www.topografix.com/GPX/1/1 http://www.topografix.com/GPX/1/1/gpx.xsd" version="1.1" creator="VisuGPX - https://www.visugpx.com">
  <metadata>
    <name>promenade au Lac du Lou</name>
    <desc><![CDATA[départ à l\'arret du car (\"La Chasse\") puis sentier n°13 jusqu\'au Lac du Lou et retour par le sentier n°12 et jusqu\'au quartier Brelin des Menuires (en prenant l\'ascenseur à la fin). Avec des enfants de 4ans et demi et 6 ans.]]></desc>
  </metadata>
  <trk>
    <name><![CDATA[promenade au Lac du Lou_1]]></name>
    <trkseg>
      <trkpt lat="45.30636" lon="6.54658">
        <ele>1883</ele>
        <time>2014-07-24T12:27:21Z</time>
      </trkpt>
      <trkpt lat="45.30615" lon="6.54669">
        <ele>1880</ele>
        <time>2014-07-24T12:28:04Z</time>
      </trkpt>
      <trkpt lat="45.30595" lon="6.54686">
        <ele>1883</ele>
        <time>2014-07-24T12:28:47Z</time>
      </trkpt>
      <trkpt lat="45.30615" lon="6.547">
        <ele>1886</ele>
        <time>2014-07-24T12:29:23Z</time>
      </trkpt>
      <trkpt lat="45.30594" lon="6.54714">
        <ele>1888</ele>
        <time>2014-07-24T12:31:03Z</time>
      </trkpt>
      <trkpt lat="45.30571" lon="6.54717">
        <ele>1889</ele>
        <time>2014-07-24T12:31:24Z</time>
      </trkpt>
      <trkpt lat="45.30548" lon="6.54722">
        <ele>1892</ele>
        <time>2014-07-24T12:31:56Z</time>
      </trkpt>
      <trkpt lat="45.30531" lon="6.54744">
        <ele>1906</ele>
        <time>2014-07-24T12:35:40Z</time>
      </trkpt>
      <trkpt lat="45.30513" lon="6.54763">
        <ele>1904</ele>
        <time>2014-07-24T12:36:30Z</time>
      </trkpt>
      <trkpt lat="45.30494" lon="6.54781">
        <ele>1910</ele>
        <time>2014-07-24T12:39:12Z</time>
      </trkpt>
      <trkpt lat="45.30472" lon="6.54772">
        <ele>1909</ele>
        <time>2014-07-24T12:40:05Z</time>
      </trkpt>
      <trkpt lat="45.3045" lon="6.54779">
        <ele>1906</ele>
        <time>2014-07-24T12:40:53Z</time>
      </trkpt>
      <trkpt lat="45.30427" lon="6.54778">
        <ele>1906</ele>
        <time>2014-07-24T12:41:43Z</time>
      </trkpt>
      <trkpt lat="45.30405" lon="6.54788">
        <ele>1906</ele>
        <time>2014-07-24T12:42:03Z</time>
      </trkpt>
      <trkpt lat="45.30384" lon="6.54776">
        <ele>1905</ele>
        <time>2014-07-24T12:42:34Z</time>
      </trkpt>
      <trkpt lat="45.30361" lon="6.54781">
        <ele>1903</ele>
        <time>2014-07-24T12:43:04Z</time>
      </trkpt>
      <trkpt lat="45.30338" lon="6.54787">
        <ele>1901</ele>
        <time>2014-07-24T12:43:37Z</time>
      </trkpt>
      <trkpt lat="45.30321" lon="6.54807">
        <ele>1896</ele>
        <time>2014-07-24T12:44:19Z</time>
      </trkpt>
      <trkpt lat="45.30304" lon="6.54829">
        <ele>1896</ele>
        <time>2014-07-24T12:44:56Z</time>
      </trkpt>
      <trkpt lat="45.30281" lon="6.54821">
        <ele>1888</ele>
        <time>2014-07-24T12:45:42Z</time>
      </trkpt>
      <trkpt lat="45.3027" lon="6.5485">
        <ele>1881</ele>
        <time>2014-07-24T12:46:20Z</time>
      </trkpt>
      <trkpt lat="45.30253" lon="6.54869">
        <ele>1877</ele>
        <time>2014-07-24T12:46:39Z</time>
      </trkpt>
      <trkpt lat="45.3023" lon="6.54867">
        <ele>1876</ele>
        <time>2014-07-24T12:47:25Z</time>
      </trkpt>
      <trkpt lat="45.30212" lon="6.54848">
        <ele>1875</ele>
        <time>2014-07-24T12:47:54Z</time>
      </trkpt>
      <trkpt lat="45.30215" lon="6.54816">
        <ele>1876</ele>
        <time>2014-07-24T12:48:44Z</time>
      </trkpt>
      <trkpt lat="45.30215" lon="6.54783">
        <ele>1872</ele>
        <time>2014-07-24T12:49:26Z</time>
      </trkpt>
      <trkpt lat="45.30203" lon="6.54755">
        <ele>1872</ele>
        <time>2014-07-24T12:49:43Z</time>
      </trkpt>
      <trkpt lat="45.30186" lon="6.54734">
        <ele>1875</ele>
        <time>2014-07-24T12:50:27Z</time>
      </trkpt>
      <trkpt lat="45.30174" lon="6.54705">
        <ele>1877</ele>
        <time>2014-07-24T12:51:32Z</time>
      </trkpt>
      <trkpt lat="45.30153" lon="6.54694">
        <ele>1882</ele>
        <time>2014-07-24T12:52:35Z</time>
      </trkpt>
      <trkpt lat="45.30134" lon="6.54676">
        <ele>1887</ele>
        <time>2014-07-24T12:53:21Z</time>
      </trkpt>
      <trkpt lat="45.3012" lon="6.54649">
        <ele>1892</ele>
        <time>2014-07-24T12:54:30Z</time>
      </trkpt>
      <trkpt lat="45.30108" lon="6.54621">
        <ele>1890</ele>
        <time>2014-07-24T12:55:23Z</time>
      </trkpt>
      <trkpt lat="45.30088" lon="6.54607">
        <ele>1891</ele>
        <time>2014-07-24T12:56:23Z</time>
      </trkpt>
      <trkpt lat="45.30068" lon="6.54591">
        <ele>1892</ele>
        <time>2014-07-24T12:56:46Z</time>
      </trkpt>
      <trkpt lat="45.30053" lon="6.54566">
        <ele>1893</ele>
        <time>2014-07-24T12:57:12Z</time>
      </trkpt>
      <trkpt lat="45.30045" lon="6.54535">
        <ele>1902</ele>
        <time>2014-07-24T12:58:18Z</time>
      </trkpt>
      <trkpt lat="45.30043" lon="6.54503">
        <ele>1909</ele>
        <time>2014-07-24T12:58:44Z</time>
      </trkpt>
      <trkpt lat="45.3006" lon="6.54482">
        <ele>1907</ele>
        <time>2014-07-24T12:59:32Z</time>
      </trkpt>
      <trkpt lat="45.30063" lon="6.5445">
        <ele>1908</ele>
        <time>2014-07-24T13:01:07Z</time>
      </trkpt>
      <trkpt lat="45.30063" lon="6.54417">
        <ele>1907</ele>
        <time>2014-07-24T13:02:01Z</time>
      </trkpt>
      <trkpt lat="45.30057" lon="6.54386">
        <ele>1908</ele>
        <time>2014-07-24T13:02:42Z</time>
      </trkpt>
      <trkpt lat="45.30038" lon="6.54369">
        <ele>1907</ele>
        <time>2014-07-24T13:03:17Z</time>
      </trkpt>
      <trkpt lat="45.30021" lon="6.54346">
        <ele>1912</ele>
        <time>2014-07-24T13:05:42Z</time>
      </trkpt>
      <trkpt lat="45.30004" lon="6.54325">
        <ele>1913</ele>
        <time>2014-07-24T13:06:19Z</time>
      </trkpt>
      <trkpt lat="45.29985" lon="6.54307">
        <ele>1915</ele>
        <time>2014-07-24T13:08:03Z</time>
      </trkpt>
      <trkpt lat="45.29966" lon="6.54288">
        <ele>1919</ele>
        <time>2014-07-24T13:09:00Z</time>
      </trkpt>
      <trkpt lat="45.29961" lon="6.54256">
        <ele>1918</ele>
        <time>2014-07-24T13:10:16Z</time>
      </trkpt>
      <trkpt lat="45.2995" lon="6.54228">
        <ele>1918</ele>
        <time>2014-07-24T13:10:49Z</time>
      </trkpt>
      <trkpt lat="45.29941" lon="6.54198">
        <ele>1922</ele>
        <time>2014-07-24T13:11:20Z</time>
      </trkpt>
      <trkpt lat="45.29943" lon="6.54165">
        <ele>1924</ele>
        <time>2014-07-24T13:13:32Z</time>
      </trkpt>
      <trkpt lat="45.29949" lon="6.54133">
        <ele>1926</ele>
        <time>2014-07-24T13:14:17Z</time>
      </trkpt>
      <trkpt lat="45.29941" lon="6.54103">
        <ele>1928</ele>
        <time>2014-07-24T13:15:15Z</time>
      </trkpt>
      <trkpt lat="45.29926" lon="6.54078">
        <ele>1930</ele>
        <time>2014-07-24T13:15:39Z</time>
      </trkpt>
      <trkpt lat="45.29908" lon="6.54058">
        <ele>1933</ele>
        <time>2014-07-24T13:16:27Z</time>
      </trkpt>
      <trkpt lat="45.29921" lon="6.54032">
        <ele>1933</ele>
        <time>2014-07-24T13:17:01Z</time>
      </trkpt>
      <trkpt lat="45.299" lon="6.54017">
        <ele>1931</ele>
        <time>2014-07-24T13:18:19Z</time>
      </trkpt>
      <trkpt lat="45.29898" lon="6.53985">
        <ele>1931</ele>
        <time>2014-07-24T13:19:00Z</time>
      </trkpt>
      <trkpt lat="45.29901" lon="6.53952">
        <ele>1936</ele>
        <time>2014-07-24T13:19:36Z</time>
      </trkpt>
      <trkpt lat="45.29912" lon="6.53924">
        <ele>1935</ele>
        <time>2014-07-24T13:20:07Z</time>
      </trkpt>
      <trkpt lat="45.29906" lon="6.53893">
        <ele>1947</ele>
        <time>2014-07-24T13:23:11Z</time>
      </trkpt>
      <trkpt lat="45.299" lon="6.53861">
        <ele>1949</ele>
        <time>2014-07-24T13:23:31Z</time>
      </trkpt>
      <trkpt lat="45.29899" lon="6.53829">
        <ele>1950</ele>
        <time>2014-07-24T13:24:15Z</time>
      </trkpt>
      <trkpt lat="45.299" lon="6.53795">
        <ele>1954</ele>
        <time>2014-07-24T13:24:46Z</time>
      </trkpt>
      <trkpt lat="45.29902" lon="6.53763">
        <ele>1954</ele>
        <time>2014-07-24T13:25:37Z</time>
      </trkpt>
      <trkpt lat="45.2988" lon="6.53749">
        <ele>1954</ele>
        <time>2014-07-24T13:27:39Z</time>
      </trkpt>
      <trkpt lat="45.29862" lon="6.5373">
        <ele>1954</ele>
        <time>2014-07-24T13:28:02Z</time>
      </trkpt>
      <trkpt lat="45.29856" lon="6.53698">
        <ele>1954</ele>
        <time>2014-07-24T13:28:51Z</time>
      </trkpt>
      <trkpt lat="45.2984" lon="6.53676">
        <ele>1955</ele>
        <time>2014-07-24T13:29:34Z</time>
      </trkpt>
      <trkpt lat="45.29824" lon="6.53653">
        <ele>1955</ele>
        <time>2014-07-24T13:30:01Z</time>
      </trkpt>
      <trkpt lat="45.29806" lon="6.53632">
        <ele>1954</ele>
        <time>2014-07-24T13:30:39Z</time>
      </trkpt>
      <trkpt lat="45.29784" lon="6.53626">
        <ele>1954</ele>
        <time>2014-07-24T13:31:29Z</time>
      </trkpt>
      <trkpt lat="45.29762" lon="6.5362">
        <ele>1951</ele>
        <time>2014-07-24T13:32:07Z</time>
      </trkpt>
      <trkpt lat="45.29743" lon="6.53602">
        <ele>1961</ele>
        <time>2014-07-24T13:32:47Z</time>
      </trkpt>
      <trkpt lat="45.29727" lon="6.53579">
        <ele>1963</ele>
        <time>2014-07-24T13:33:30Z</time>
      </trkpt>
      <trkpt lat="45.29712" lon="6.53554">
        <ele>1965</ele>
        <time>2014-07-24T13:34:07Z</time>
      </trkpt>
      <trkpt lat="45.29691" lon="6.53543">
        <ele>1967</ele>
        <time>2014-07-24T13:34:36Z</time>
      </trkpt>
      <trkpt lat="45.29676" lon="6.53518">
        <ele>1974</ele>
        <time>2014-07-24T13:39:20Z</time>
      </trkpt>
      <trkpt lat="45.29657" lon="6.535">
        <ele>1971</ele>
        <time>2014-07-24T13:39:57Z</time>
      </trkpt>
      <trkpt lat="45.29634" lon="6.53493">
        <ele>1971</ele>
        <time>2014-07-24T13:40:32Z</time>
      </trkpt>
      <trkpt lat="45.29618" lon="6.53469">
        <ele>1986</ele>
        <time>2014-07-24T13:42:49Z</time>
      </trkpt>
      <trkpt lat="45.29601" lon="6.53445">
        <ele>1986</ele>
        <time>2014-07-24T13:43:26Z</time>
      </trkpt>
      <trkpt lat="45.2959" lon="6.53417">
        <ele>1985</ele>
        <time>2014-07-24T13:43:46Z</time>
      </trkpt>
      <trkpt lat="45.29571" lon="6.53401">
        <ele>1984</ele>
        <time>2014-07-24T13:44:18Z</time>
      </trkpt>
      <trkpt lat="45.29558" lon="6.53374">
        <ele>1984</ele>
        <time>2014-07-24T13:44:59Z</time>
      </trkpt>
      <trkpt lat="45.29579" lon="6.53361">
        <ele>1988</ele>
        <time>2014-07-24T13:45:50Z</time>
      </trkpt>
      <trkpt lat="45.29566" lon="6.53334">
        <ele>1999</ele>
        <time>2014-07-24T13:46:28Z</time>
      </trkpt>
      <trkpt lat="45.29556" lon="6.53304">
        <ele>2002</ele>
        <time>2014-07-24T13:47:09Z</time>
      </trkpt>
      <trkpt lat="45.29533" lon="6.53296">
        <ele>2009</ele>
        <time>2014-07-24T13:47:38Z</time>
      </trkpt>
      <trkpt lat="45.29511" lon="6.5329">
        <ele>2012</ele>
        <time>2014-07-24T13:48:08Z</time>
      </trkpt>
      <trkpt lat="45.29492" lon="6.53271">
        <ele>2019</ele>
        <time>2014-07-24T13:50:31Z</time>
      </trkpt>
      <trkpt lat="45.29478" lon="6.53244">
        <ele>2022</ele>
        <time>2014-07-24T13:50:55Z</time>
      </trkpt>
      <trkpt lat="45.29459" lon="6.53229">
        <ele>2023</ele>
        <time>2014-07-24T13:51:38Z</time>
      </trkpt>
      <trkpt lat="45.29439" lon="6.53212">
        <ele>2027</ele>
        <time>2014-07-24T13:52:16Z</time>
      </trkpt>
      <trkpt lat="45.29425" lon="6.53185">
        <ele>2031</ele>
        <time>2014-07-24T13:52:54Z</time>
      </trkpt>
      <trkpt lat="45.29402" lon="6.53181">
        <ele>2033</ele>
        <time>2014-07-24T13:53:14Z</time>
      </trkpt>
      <trkpt lat="45.29381" lon="6.53169">
        <ele>2040</ele>
        <time>2014-07-24T13:53:39Z</time>
      </trkpt>
      <trkpt lat="45.29365" lon="6.53145">
        <ele>2039</ele>
        <time>2014-07-24T13:54:06Z</time>
      </trkpt>
      <trkpt lat="45.29355" lon="6.53116">
        <ele>2038</ele>
        <time>2014-07-24T13:54:40Z</time>
      </trkpt>
      <trkpt lat="45.29348" lon="6.53085">
        <ele>2038</ele>
        <time>2014-07-24T13:55:07Z</time>
      </trkpt>
      <trkpt lat="45.29325" lon="6.53078">
        <ele>2041</ele>
        <time>2014-07-24T13:55:38Z</time>
      </trkpt>
      <trkpt lat="45.29344" lon="6.53075">
        <ele>2060</ele>
        <time>2014-07-24T14:25:40Z</time>
      </trkpt>
      <trkpt lat="45.29364" lon="6.53091">
        <ele>2048</ele>
        <time>2014-07-24T14:26:59Z</time>
      </trkpt>
      <trkpt lat="45.29386" lon="6.53101">
        <ele>2049</ele>
        <time>2014-07-24T14:27:27Z</time>
      </trkpt>
      <trkpt lat="45.29404" lon="6.53122">
        <ele>2051</ele>
        <time>2014-07-24T14:28:06Z</time>
      </trkpt>
      <trkpt lat="45.29415" lon="6.5315">
        <ele>2049</ele>
        <time>2014-07-24T14:28:45Z</time>
      </trkpt>
      <trkpt lat="45.29434" lon="6.53169">
        <ele>2045</ele>
        <time>2014-07-24T14:29:06Z</time>
      </trkpt>
      <trkpt lat="45.29451" lon="6.53191">
        <ele>2046</ele>
        <time>2014-07-24T14:29:30Z</time>
      </trkpt>
      <trkpt lat="45.29474" lon="6.53184">
        <ele>2044</ele>
        <time>2014-07-24T14:29:51Z</time>
      </trkpt>
      <trkpt lat="45.2949" lon="6.53207">
        <ele>2041</ele>
        <time>2014-07-24T14:31:28Z</time>
      </trkpt>
      <trkpt lat="45.29497" lon="6.53241">
        <ele>2040</ele>
        <time>2014-07-24T14:31:59Z</time>
      </trkpt>
      <trkpt lat="45.29515" lon="6.53262">
        <ele>2040</ele>
        <time>2014-07-24T14:32:12Z</time>
      </trkpt>
      <trkpt lat="45.29534" lon="6.53281">
        <ele>2033</ele>
        <time>2014-07-24T14:32:34Z</time>
      </trkpt>
      <trkpt lat="45.29553" lon="6.53301">
        <ele>2025</ele>
        <time>2014-07-24T14:32:59Z</time>
      </trkpt>
      <trkpt lat="45.29575" lon="6.53311">
        <ele>2019</ele>
        <time>2014-07-24T14:33:20Z</time>
      </trkpt>
      <trkpt lat="45.29598" lon="6.53304">
        <ele>2020</ele>
        <time>2014-07-24T14:34:28Z</time>
      </trkpt>
      <trkpt lat="45.29599" lon="6.53336">
        <ele>2002</ele>
        <time>2014-07-24T14:35:42Z</time>
      </trkpt>
      <trkpt lat="45.29617" lon="6.53358">
        <ele>2003</ele>
        <time>2014-07-24T14:36:30Z</time>
      </trkpt>
      <trkpt lat="45.2963" lon="6.53386">
        <ele>1997</ele>
        <time>2014-07-24T14:36:49Z</time>
      </trkpt>
      <trkpt lat="45.29646" lon="6.53408">
        <ele>1993</ele>
        <time>2014-07-24T14:37:25Z</time>
      </trkpt>
      <trkpt lat="45.29668" lon="6.53411">
        <ele>1992</ele>
        <time>2014-07-24T14:38:04Z</time>
      </trkpt>
      <trkpt lat="45.29689" lon="6.53423">
        <ele>1993</ele>
        <time>2014-07-24T14:38:35Z</time>
      </trkpt>
      <trkpt lat="45.29712" lon="6.53428">
        <ele>1988</ele>
        <time>2014-07-24T14:39:49Z</time>
      </trkpt>
      <trkpt lat="45.29735" lon="6.53429">
        <ele>1988</ele>
        <time>2014-07-24T14:40:32Z</time>
      </trkpt>
      <trkpt lat="45.29757" lon="6.53425">
        <ele>1988</ele>
        <time>2014-07-24T14:40:55Z</time>
      </trkpt>
      <trkpt lat="45.2978" lon="6.53414">
        <ele>1985</ele>
        <time>2014-07-24T14:41:18Z</time>
      </trkpt>
      <trkpt lat="45.29801" lon="6.534">
        <ele>1976</ele>
        <time>2014-07-24T14:41:35Z</time>
      </trkpt>
      <trkpt lat="45.29823" lon="6.53411">
        <ele>1968</ele>
        <time>2014-07-24T14:42:56Z</time>
      </trkpt>
      <trkpt lat="45.29846" lon="6.53413">
        <ele>1966</ele>
        <time>2014-07-24T14:43:27Z</time>
      </trkpt>
      <trkpt lat="45.29865" lon="6.53429">
        <ele>1964</ele>
        <time>2014-07-24T14:43:56Z</time>
      </trkpt>
      <trkpt lat="45.29887" lon="6.53415">
        <ele>1960</ele>
        <time>2014-07-24T14:44:44Z</time>
      </trkpt>
      <trkpt lat="45.29889" lon="6.53383">
        <ele>1958</ele>
        <time>2014-07-24T14:45:05Z</time>
      </trkpt>
      <trkpt lat="45.29912" lon="6.53379">
        <ele>1959</ele>
        <time>2014-07-24T14:45:46Z</time>
      </trkpt>
      <trkpt lat="45.29934" lon="6.53376">
        <ele>1958</ele>
        <time>2014-07-24T14:46:07Z</time>
      </trkpt>
      <trkpt lat="45.29949" lon="6.53401">
        <ele>1957</ele>
        <time>2014-07-24T14:46:51Z</time>
      </trkpt>
      <trkpt lat="45.2996" lon="6.5343">
        <ele>1958</ele>
        <time>2014-07-24T14:47:14Z</time>
      </trkpt>
      <trkpt lat="45.29978" lon="6.5345">
        <ele>1954</ele>
        <time>2014-07-24T14:47:36Z</time>
      </trkpt>
      <trkpt lat="45.29993" lon="6.53476">
        <ele>1955</ele>
        <time>2014-07-24T14:48:08Z</time>
      </trkpt>
      <trkpt lat="45.30003" lon="6.53505">
        <ele>1951</ele>
        <time>2014-07-24T14:48:57Z</time>
      </trkpt>
      <trkpt lat="45.30007" lon="6.53536">
        <ele>1949</ele>
        <time>2014-07-24T14:50:04Z</time>
      </trkpt>
      <trkpt lat="45.30028" lon="6.5355">
        <ele>1942</ele>
        <time>2014-07-24T14:51:25Z</time>
      </trkpt>
      <trkpt lat="45.30044" lon="6.53573">
        <ele>1943</ele>
        <time>2014-07-24T14:51:42Z</time>
      </trkpt>
      <trkpt lat="45.30058" lon="6.53599">
        <ele>1941</ele>
        <time>2014-07-24T14:52:06Z</time>
      </trkpt>
      <trkpt lat="45.30078" lon="6.53616">
        <ele>1939</ele>
        <time>2014-07-24T14:52:22Z</time>
      </trkpt>
      <trkpt lat="45.30101" lon="6.53613">
        <ele>1934</ele>
        <time>2014-07-24T14:52:41Z</time>
      </trkpt>
      <trkpt lat="45.30123" lon="6.53622">
        <ele>1933</ele>
        <time>2014-07-24T14:53:08Z</time>
      </trkpt>
      <trkpt lat="45.30142" lon="6.5364">
        <ele>1932</ele>
        <time>2014-07-24T14:53:28Z</time>
      </trkpt>
      <trkpt lat="45.30161" lon="6.5366">
        <ele>1930</ele>
        <time>2014-07-24T14:54:43Z</time>
      </trkpt>
      <trkpt lat="45.30176" lon="6.53686">
        <ele>1927</ele>
        <time>2014-07-24T14:55:18Z</time>
      </trkpt>
      <trkpt lat="45.30196" lon="6.53701">
        <ele>1924</ele>
        <time>2014-07-24T14:55:38Z</time>
      </trkpt>
      <trkpt lat="45.30217" lon="6.53714">
        <ele>1923</ele>
        <time>2014-07-24T14:56:03Z</time>
      </trkpt>
      <trkpt lat="45.30241" lon="6.53713">
        <ele>1923</ele>
        <time>2014-07-24T14:56:19Z</time>
      </trkpt>
      <trkpt lat="45.30264" lon="6.53709">
        <ele>1921</ele>
        <time>2014-07-24T14:57:16Z</time>
      </trkpt>
      <trkpt lat="45.30286" lon="6.53717">
        <ele>1919</ele>
        <time>2014-07-24T14:57:47Z</time>
      </trkpt>
      <trkpt lat="45.30305" lon="6.53736">
        <ele>1915</ele>
        <time>2014-07-24T14:58:38Z</time>
      </trkpt>
      <trkpt lat="45.30327" lon="6.53745">
        <ele>1915</ele>
        <time>2014-07-24T14:59:26Z</time>
      </trkpt>
      <trkpt lat="45.30347" lon="6.53728">
        <ele>1914</ele>
        <time>2014-07-24T14:59:44Z</time>
      </trkpt>
      <trkpt lat="45.3037" lon="6.53729">
        <ele>1912</ele>
        <time>2014-07-24T15:00:01Z</time>
      </trkpt>
      <trkpt lat="45.30337" lon="6.53744">
        <ele>1907</ele>
        <time>2014-07-24T15:00:39Z</time>
      </trkpt>
      <trkpt lat="45.3036" lon="6.53754">
        <ele>1908</ele>
        <time>2014-07-24T15:00:50Z</time>
      </trkpt>
      <trkpt lat="45.30383" lon="6.53753">
        <ele>1908</ele>
        <time>2014-07-24T15:00:58Z</time>
      </trkpt>
      <trkpt lat="45.30405" lon="6.53746">
        <ele>1907</ele>
        <time>2014-07-24T15:01:12Z</time>
      </trkpt>
      <trkpt lat="45.30425" lon="6.53728">
        <ele>1906</ele>
        <time>2014-07-24T15:01:49Z</time>
      </trkpt>
      <trkpt lat="45.30445" lon="6.53715">
        <ele>1903</ele>
        <time>2014-07-24T15:03:02Z</time>
      </trkpt>
      <trkpt lat="45.30469" lon="6.53719">
        <ele>1900</ele>
        <time>2014-07-24T15:05:46Z</time>
      </trkpt>
      <trkpt lat="45.30504" lon="6.53717">
        <ele>1894</ele>
        <time>2014-07-24T15:06:56Z</time>
      </trkpt>
      <trkpt lat="45.30526" lon="6.53707">
        <ele>1881</ele>
        <time>2014-07-24T15:08:20Z</time>
      </trkpt>
      <trkpt lat="45.30547" lon="6.53719">
        <ele>1876</ele>
        <time>2014-07-24T15:09:01Z</time>
      </trkpt>
      <trkpt lat="45.3057" lon="6.53726">
        <ele>1868</ele>
        <time>2014-07-24T15:09:46Z</time>
      </trkpt>
      <trkpt lat="45.30592" lon="6.53728">
        <ele>1867</ele>
        <time>2014-07-24T15:10:23Z</time>
      </trkpt>
      <trkpt lat="45.30615" lon="6.53736">
        <ele>1855</ele>
        <time>2014-07-24T15:12:05Z</time>
      </trkpt>
      <trkpt lat="45.30625" lon="6.53766">
        <ele>1848</ele>
        <time>2014-07-24T15:13:07Z</time>
      </trkpt>
      <trkpt lat="45.3064" lon="6.53791">
        <ele>1844</ele>
        <time>2014-07-24T15:13:37Z</time>
      </trkpt>
      <trkpt lat="45.30658" lon="6.53811">
        <ele>1838</ele>
        <time>2014-07-24T15:14:02Z</time>
      </trkpt>
      <trkpt lat="45.30679" lon="6.53823">
        <ele>1836</ele>
        <time>2014-07-24T15:14:33Z</time>
      </trkpt>
      <trkpt lat="45.307" lon="6.53837">
        <ele>1829</ele>
        <time>2014-07-24T15:15:05Z</time>
      </trkpt>
      <trkpt lat="45.30721" lon="6.5385">
        <ele>1827</ele>
        <time>2014-07-24T15:15:34Z</time>
      </trkpt>
      <trkpt lat="45.30743" lon="6.53846">
        <ele>1821</ele>
        <time>2014-07-24T15:16:15Z</time>
      </trkpt>
      <trkpt lat="45.30766" lon="6.53843">
        <ele>1825</ele>
        <time>2014-07-24T15:16:46Z</time>
      </trkpt>
      <trkpt lat="45.3079" lon="6.53848">
        <ele>1826</ele>
        <time>2014-07-24T15:17:15Z</time>
      </trkpt>
      <trkpt lat="45.30813" lon="6.53843">
        <ele>1827</ele>
        <time>2014-07-24T15:17:39Z</time>
      </trkpt>
      <trkpt lat="45.30836" lon="6.53846">
        <ele>1828</ele>
        <time>2014-07-24T15:18:38Z</time>
      </trkpt>
      <trkpt lat="45.30859" lon="6.53852">
        <ele>1830</ele>
        <time>2014-07-24T15:18:54Z</time>
      </trkpt>
      <trkpt lat="45.30874" lon="6.53826">
        <ele>1829</ele>
        <time>2014-07-24T15:19:36Z</time>
      </trkpt>
      <trkpt lat="45.30895" lon="6.53814">
        <ele>1826</ele>
        <time>2014-07-24T15:20:03Z</time>
      </trkpt>
      <trkpt lat="45.30915" lon="6.53797">
        <ele>1822</ele>
        <time>2014-07-24T15:20:23Z</time>
      </trkpt>
      <trkpt lat="45.30937" lon="6.53801">
        <ele>1812</ele>
        <time>2014-07-24T15:20:58Z</time>
      </trkpt>
      <trkpt lat="45.3096" lon="6.53793">
        <ele>1810</ele>
        <time>2014-07-24T15:21:27Z</time>
      </trkpt>
      <trkpt lat="45.30981" lon="6.53781">
        <ele>1807</ele>
        <time>2014-07-24T15:21:50Z</time>
      </trkpt>
      <trkpt lat="45.31006" lon="6.53775">
        <ele>1802</ele>
        <time>2014-07-24T15:22:04Z</time>
      </trkpt>
      <trkpt lat="45.31014" lon="6.53745">
        <ele>1797</ele>
        <time>2014-07-24T15:22:24Z</time>
      </trkpt>
      <trkpt lat="45.31038" lon="6.53743">
        <ele>1797</ele>
        <time>2014-07-24T15:23:04Z</time>
      </trkpt>
      <trkpt lat="45.31057" lon="6.53763">
        <ele>1795</ele>
        <time>2014-07-24T15:23:25Z</time>
      </trkpt>
      <trkpt lat="45.31081" lon="6.53763">
        <ele>1795</ele>
        <time>2014-07-24T15:23:46Z</time>
      </trkpt>
      <trkpt lat="45.31104" lon="6.53762">
        <ele>1795</ele>
        <time>2014-07-24T15:24:04Z</time>
      </trkpt>
      <trkpt lat="45.31121" lon="6.53784">
        <ele>1789</ele>
        <time>2014-07-24T15:24:32Z</time>
      </trkpt>
      <trkpt lat="45.31141" lon="6.538">
        <ele>1782</ele>
        <time>2014-07-24T15:24:51Z</time>
      </trkpt>
      <trkpt lat="45.31165" lon="6.53808">
        <ele>1780</ele>
        <time>2014-07-24T15:25:01Z</time>
      </trkpt>
      <trkpt lat="45.31184" lon="6.53826">
        <ele>1777</ele>
        <time>2014-07-24T15:25:14Z</time>
      </trkpt>
      <trkpt lat="45.31208" lon="6.53833">
        <ele>1772</ele>
        <time>2014-07-24T15:25:29Z</time>
      </trkpt>
      <trkpt lat="45.31231" lon="6.53831">
        <ele>1770</ele>
        <time>2014-07-24T15:25:44Z</time>
      </trkpt>
      <trkpt lat="45.31248" lon="6.53853">
        <ele>1759</ele>
        <time>2014-07-24T15:26:51Z</time>
      </trkpt>
      <trkpt lat="45.31271" lon="6.5385">
        <ele>1758</ele>
        <time>2014-07-24T15:27:03Z</time>
      </trkpt>
      <trkpt lat="45.31292" lon="6.53864">
        <ele>1759</ele>
        <time>2014-07-24T15:27:17Z</time>
      </trkpt>
      <trkpt lat="45.3131" lon="6.53843">
        <ele>1752</ele>
        <time>2014-07-24T15:28:49Z</time>
      </trkpt>
      <trkpt lat="45.31334" lon="6.53844">
        <ele>1757</ele>
        <time>2014-07-24T15:29:15Z</time>
      </trkpt>
      <trkpt lat="45.31357" lon="6.53842">
        <ele>1759</ele>
        <time>2014-07-24T15:29:31Z</time>
      </trkpt>
      <trkpt lat="45.3138" lon="6.53836">
        <ele>1761</ele>
        <time>2014-07-24T15:29:59Z</time>
      </trkpt>
      <trkpt lat="45.31402" lon="6.53832">
        <ele>1761</ele>
        <time>2014-07-24T15:30:10Z</time>
      </trkpt>
      <trkpt lat="45.31425" lon="6.53828">
        <ele>1762</ele>
        <time>2014-07-24T15:30:20Z</time>
      </trkpt>
      <trkpt lat="45.31448" lon="6.5382">
        <ele>1768</ele>
        <time>2014-07-24T15:30:39Z</time>
      </trkpt>
      <trkpt lat="45.31471" lon="6.53814">
        <ele>1768</ele>
        <time>2014-07-24T15:31:00Z</time>
      </trkpt>
      <trkpt lat="45.31494" lon="6.53798">
        <ele>1766</ele>
        <time>2014-07-24T15:31:20Z</time>
      </trkpt>
      <trkpt lat="45.31514" lon="6.5378">
        <ele>1766</ele>
        <time>2014-07-24T15:31:29Z</time>
      </trkpt>
      <trkpt lat="45.31537" lon="6.53775">
        <ele>1763</ele>
        <time>2014-07-24T15:31:46Z</time>
      </trkpt>
      <trkpt lat="45.3156" lon="6.53779">
        <ele>1765</ele>
        <time>2014-07-24T15:32:02Z</time>
      </trkpt>
      <trkpt lat="45.31585" lon="6.53772">
        <ele>1764</ele>
        <time>2014-07-24T15:32:13Z</time>
      </trkpt>
      <trkpt lat="45.31608" lon="6.53768">
        <ele>1763</ele>
        <time>2014-07-24T15:32:27Z</time>
      </trkpt>
      <trkpt lat="45.31633" lon="6.53765">
        <ele>1763</ele>
        <time>2014-07-24T15:32:46Z</time>
      </trkpt>
      <trkpt lat="45.31653" lon="6.53749">
        <ele>1765</ele>
        <time>2014-07-24T15:32:58Z</time>
      </trkpt>
      <trkpt lat="45.31673" lon="6.53734">
        <ele>1761</ele>
        <time>2014-07-24T15:33:15Z</time>
      </trkpt>
      <trkpt lat="45.31693" lon="6.5372">
        <ele>1760</ele>
        <time>2014-07-24T15:33:33Z</time>
      </trkpt>
      <trkpt lat="45.31715" lon="6.53712">
        <ele>1751</ele>
        <time>2014-07-24T15:34:05Z</time>
      </trkpt>
      <trkpt lat="45.31733" lon="6.53689">
        <ele>1750</ele>
        <time>2014-07-24T15:34:20Z</time>
      </trkpt>
      <trkpt lat="45.31755" lon="6.5368">
        <ele>1750</ele>
        <time>2014-07-24T15:34:31Z</time>
      </trkpt>
      <trkpt lat="45.31777" lon="6.5367">
        <ele>1751</ele>
        <time>2014-07-24T15:34:48Z</time>
      </trkpt>
      <trkpt lat="45.318" lon="6.53666">
        <ele>1753</ele>
        <time>2014-07-24T15:35:09Z</time>
      </trkpt>
      <trkpt lat="45.31823" lon="6.53666">
        <ele>1748</ele>
        <time>2014-07-24T15:35:36Z</time>
      </trkpt>
      <trkpt lat="45.31847" lon="6.53672">
        <ele>1748</ele>
        <time>2014-07-24T15:36:02Z</time>
      </trkpt>
      <trkpt lat="45.31869" lon="6.53666">
        <ele>1747</ele>
        <time>2014-07-24T15:36:18Z</time>
      </trkpt>
      <trkpt lat="45.31892" lon="6.53664">
        <ele>1748</ele>
        <time>2014-07-24T15:36:36Z</time>
      </trkpt>
      <trkpt lat="45.31915" lon="6.5367">
        <ele>1750</ele>
        <time>2014-07-24T15:36:54Z</time>
      </trkpt>
      <trkpt lat="45.31919" lon="6.53703">
        <ele>1750</ele>
        <time>2014-07-24T15:37:16Z</time>
      </trkpt>
      <trkpt lat="45.31933" lon="6.53728">
        <ele>1748</ele>
        <time>2014-07-24T15:37:31Z</time>
      </trkpt>
      <trkpt lat="45.31956" lon="6.53731">
        <ele>1747</ele>
        <time>2014-07-24T15:37:44Z</time>
      </trkpt>
      <trkpt lat="45.31979" lon="6.53723">
        <ele>1747</ele>
        <time>2014-07-24T15:38:17Z</time>
      </trkpt>
      <trkpt lat="45.31998" lon="6.53702">
        <ele>1755</ele>
        <time>2014-07-24T15:39:14Z</time>
      </trkpt>
      <trkpt lat="45.32019" lon="6.53687">
        <ele>1758</ele>
        <time>2014-07-24T15:39:42Z</time>
      </trkpt>
      <trkpt lat="45.32041" lon="6.53682">
        <ele>1756</ele>
        <time>2014-07-24T15:39:51Z</time>
      </trkpt>
      <trkpt lat="45.32063" lon="6.53671">
        <ele>1757</ele>
        <time>2014-07-24T15:40:06Z</time>
      </trkpt>
      <trkpt lat="45.32086" lon="6.53668">
        <ele>1758</ele>
        <time>2014-07-24T15:40:17Z</time>
      </trkpt>
      <trkpt lat="45.32109" lon="6.53671">
        <ele>1756</ele>
        <time>2014-07-24T15:40:36Z</time>
      </trkpt>
      <trkpt lat="45.32086" lon="6.53676">
        <ele>1763</ele>
        <time>2014-07-24T15:46:45Z</time>
      </trkpt>
      <trkpt lat="45.32063" lon="6.53683">
        <ele>1762</ele>
        <time>2014-07-24T15:47:19Z</time>
      </trkpt>
      <trkpt lat="45.32045" lon="6.53704">
        <ele>1764</ele>
        <time>2014-07-24T15:47:42Z</time>
      </trkpt>
      <trkpt lat="45.32029" lon="6.53727">
        <ele>1772</ele>
        <time>2014-07-24T15:48:33Z</time>
      </trkpt>
      <trkpt lat="45.32045" lon="6.5375">
        <ele>1769</ele>
        <time>2014-07-24T15:49:55Z</time>
      </trkpt>
      <trkpt lat="45.32058" lon="6.53777">
        <ele>1773</ele>
        <time>2014-07-24T15:50:23Z</time>
      </trkpt>
      <trkpt lat="45.32037" lon="6.53789">
        <ele>1772</ele>
        <time>2014-07-24T15:50:39Z</time>
      </trkpt>
      <trkpt lat="45.32014" lon="6.53795">
        <ele>1769</ele>
        <time>2014-07-24T15:51:12Z</time>
      </trkpt>
      <trkpt lat="45.32036" lon="6.53808">
        <ele>1777</ele>
        <time>2014-07-24T15:51:57Z</time>
      </trkpt>
      <trkpt lat="45.32059" lon="6.53812">
        <ele>1777</ele>
        <time>2014-07-24T15:52:16Z</time>
      </trkpt>
      <trkpt lat="45.32093" lon="6.53823">
        <ele>1770</ele>
        <time>2014-07-24T15:52:47Z</time>
      </trkpt>
      <trkpt lat="45.32093" lon="6.53791">
        <ele>1777</ele>
        <time>2014-07-24T15:53:18Z</time>
      </trkpt>
      <trkpt lat="45.32098" lon="6.53824">
        <ele>1788</ele>
        <time>2014-07-24T15:54:12Z</time>
      </trkpt>
      <trkpt lat="45.32078" lon="6.53839">
        <ele>1793</ele>
        <time>2014-07-24T15:54:46Z</time>
      </trkpt>
      <trkpt lat="45.32054" lon="6.53837">
        <ele>1796</ele>
        <time>2014-07-24T15:55:22Z</time>
      </trkpt>
      <trkpt lat="45.32034" lon="6.53854">
        <ele>1797</ele>
        <time>2014-07-24T15:55:44Z</time>
      </trkpt>
      <trkpt lat="45.32056" lon="6.53848">
        <ele>1800</ele>
        <time>2014-07-24T15:56:33Z</time>
      </trkpt>
      <trkpt lat="45.32077" lon="6.53835">
        <ele>1802</ele>
        <time>2014-07-24T15:56:51Z</time>
      </trkpt>
      <trkpt lat="45.321" lon="6.53836">
        <ele>1804</ele>
        <time>2014-07-24T15:57:32Z</time>
      </trkpt>
      <trkpt lat="45.32123" lon="6.53835">
        <ele>1805</ele>
        <time>2014-07-24T15:57:44Z</time>
      </trkpt>
      <trkpt lat="45.32146" lon="6.53838">
        <ele>1807</ele>
        <time>2014-07-24T15:57:57Z</time>
      </trkpt>
      <trkpt lat="45.32166" lon="6.53822">
        <ele>1814</ele>
        <time>2014-07-24T15:58:35Z</time>
      </trkpt>
      <trkpt lat="45.32187" lon="6.53808">
        <ele>1826</ele>
        <time>2014-07-24T15:59:02Z</time>
      </trkpt>
      <trkpt lat="45.32208" lon="6.53797">
        <ele>1825</ele>
        <time>2014-07-24T15:59:21Z</time>
      </trkpt>
      <trkpt lat="45.32229" lon="6.53783">
        <ele>1820</ele>
        <time>2014-07-24T15:59:51Z</time>
      </trkpt>
      <trkpt lat="45.32252" lon="6.53772">
        <ele>1818</ele>
        <time>2014-07-24T16:00:14Z</time>
      </trkpt>
      <trkpt lat="45.32275" lon="6.5378">
        <ele>1818</ele>
        <time>2014-07-24T16:00:34Z</time>
      </trkpt>
      <trkpt lat="45.32298" lon="6.53774">
        <ele>1816</ele>
        <time>2014-07-24T16:00:49Z</time>
      </trkpt>
      <trkpt lat="45.32312" lon="6.53746">
        <ele>1811</ele>
        <time>2014-07-24T16:01:17Z</time>
      </trkpt>
      <trkpt lat="45.32318" lon="6.53713">
        <ele>1810</ele>
        <time>2014-07-24T16:01:25Z</time>
      </trkpt>
      <trkpt lat="45.32333" lon="6.5374">
        <ele>1809</ele>
        <time>2014-07-24T16:02:20Z</time>
      </trkpt>
      <trkpt lat="45.32355" lon="6.53731">
        <ele>1809</ele>
        <time>2014-07-24T16:03:15Z</time>
      </trkpt>
      <trkpt lat="45.3238" lon="6.53736">
        <ele>1813</ele>
        <time>2014-07-24T16:03:37Z</time>
      </trkpt>
      <trkpt lat="45.32402" lon="6.53748">
        <ele>1815</ele>
        <time>2014-07-24T16:03:56Z</time>
      </trkpt>
      <trkpt lat="45.32424" lon="6.53758">
        <ele>1815</ele>
        <time>2014-07-24T16:04:17Z</time>
      </trkpt>
      <trkpt lat="45.32445" lon="6.5377">
        <ele>1814</ele>
        <time>2014-07-24T16:04:30Z</time>
      </trkpt>
      <trkpt lat="45.32493" lon="6.538">
        <ele>1814</ele>
        <time>2014-07-24T16:04:54Z</time>
      </trkpt>
      <trkpt lat="45.32465" lon="6.53789">
        <ele>1814</ele>
        <time>2014-07-24T16:04:59Z</time>
      </trkpt>
      <trkpt lat="45.32469" lon="6.53821">
        <ele>1814</ele>
        <time>2014-07-24T16:05:12Z</time>
      </trkpt>
      <trkpt lat="45.32491" lon="6.53829">
        <ele>1816</ele>
        <time>2014-07-24T16:05:29Z</time>
      </trkpt>
      <trkpt lat="45.32514" lon="6.53826">
        <ele>1812</ele>
        <time>2014-07-24T16:05:47Z</time>
      </trkpt>
      <trkpt lat="45.32537" lon="6.53848">
        <ele>1816.27124</ele>
        <time>2014-07-24T16:06:55Z</time>
      </trkpt>
      <trkpt lat="45.32557" lon="6.53861">
        <ele>1805</ele>
        <time>2014-07-24T16:07:51Z</time>
      </trkpt>
      <trkpt lat="45.32557" lon="6.53893">
        <ele>1812</ele>
        <time>2014-07-24T16:08:10Z</time>
      </trkpt>
      <trkpt lat="45.32551" lon="6.53924">
        <ele>1817</ele>
        <time>2014-07-24T16:09:10Z</time>
      </trkpt>
      <trkpt lat="45.32561" lon="6.53955">
        <ele>1810</ele>
        <time>2014-07-24T16:12:07Z</time>
      </trkpt>
      <trkpt lat="45.32573" lon="6.53984">
        <ele>1826</ele>
        <time>2014-07-24T16:12:26Z</time>
      </trkpt>
      <trkpt lat="45.32583" lon="6.54019">
        <ele>1836</ele>
        <time>2014-07-24T16:12:43Z</time>
      </trkpt>
      <trkpt lat="45.32604" lon="6.54031">
        <ele>1859</ele>
        <time>2014-07-24T16:13:22Z</time>
      </trkpt>
      <trkpt lat="45.32619" lon="6.54055">
        <ele>1862</ele>
        <time>2014-07-24T16:13:48Z</time>
      </trkpt>
      <trkpt lat="45.32646" lon="6.54085">
        <ele>1877.463013</ele>
        <time>2014-07-24T16:14:42Z</time>
      </trkpt>
      <trkpt lat="45.32642" lon="6.5412">
        <ele>1858</ele>
        <time>2014-07-24T16:14:58Z</time>
      </trkpt>
      <trkpt lat="45.32644" lon="6.54086">
        <ele>1874</ele>
        <time>2014-07-24T16:15:18Z</time>
      </trkpt>
      <trkpt lat="45.32658" lon="6.5406">
        <ele>1877</ele>
        <time>2014-07-24T16:15:33Z</time>
      </trkpt>
      <trkpt lat="45.32673" lon="6.54035">
        <ele>1875</ele>
        <time>2014-07-24T16:15:49Z</time>
      </trkpt>
      <trkpt lat="45.32685" lon="6.54008">
        <ele>1885</ele>
        <time>2014-07-24T16:16:36Z</time>
      </trkpt>
      <trkpt lat="45.32662" lon="6.53961">
        <ele>1864.609131</ele>
        <time>2014-07-24T16:17:42Z</time>
      </trkpt>
      <trkpt lat="45.32689" lon="6.53969">
        <ele>1864.19043</ele>
        <time>2014-07-24T16:18:29Z</time>
      </trkpt>
    </trkseg>
  </trk>
</gpx>